sensor_id;sensor_type;location;lat;lon;timestamp;P1;durP1;ratioP1;P2;durP2;ratioP2
39676;SDS011;27789;50.840;4.386;2022-11-28T00:01:43;7.85;;;3.28;;
39676;SDS011;27789;50.840;4.386;2022-11-28T00:04:10;4.05;;;2.95;;
39676;SDS011;27789;50.840;4.386;2022-11-28T00:06:37;12.20;;;3.67;;
39676;SDS011;27789;50.840;4.386;2022-11-28T00:09:06;5.60;;;3.47;;
39676;SDS011;27789;50.840;4.386;2022-11-28T00:11:32;5.28;;;3.15;;
39676;SDS011;27789;50.840;4.386;2022-11-28T00:13:58;4.68;;;3.00;;
39676;SDS011;27789;50.840;4.386;2022-11-28T00:16:24;5.13;;;2.85;;
39676;SDS011;27789;50.840;4.386;2022-11-28T00:18:50;3.60;;;2.70;;
39676;SDS011;27789;50.840;4.386;2022-11-28T00:21:17;4.28;;;2.70;;
39676;SDS011;27789;50.840;4.386;2022-11-28T00:23:44;7.72;;;3.08;;
39676;SDS011;27789;50.840;4.386;2022-11-28T00:26:13;5.10;;;3.50;;
39676;SDS011;27789;50.840;4.386;2022-11-28T00:28:41;4.00;;;3.13;;
39676;SDS011;27789;50.840;4.386;2022-11-28T00:31:14;5.80;;;3.67;;
39676;SDS011;27789;50.840;4.386;2022-11-28T00:33:41;5.70;;;2.70;;
39676;SDS011;27789;50.840;4.386;2022-11-28T00:36:10;7.03;;;2.80;;
39676;SDS011;27789;50.840;4.386;2022-11-28T00:38:36;6.25;;;3.58;;
39676;SDS011;27789;50.840;4.386;2022-11-28T00:41:04;5.53;;;3.47;;
39676;SDS011;27789;50.840;4.386;2022-11-28T00:43:31;6.57;;;3.15;;
39676;SDS011;27789;50.840;4.386;2022-11-28T00:45:57;5.93;;;3.08;;
39676;SDS011;27789;50.840;4.386;2022-11-28T00:48:24;4.82;;;3.67;;
39676;SDS011;27789;50.840;4.386;2022-11-28T00:50:50;7.25;;;3.63;;
39676;SDS011;27789;50.840;4.386;2022-11-28T00:53:16;10.02;;;3.63;;
39676;SDS011;27789;50.840;4.386;2022-11-28T00:55:42;6.90;;;3.50;;
39676;SDS011;27789;50.840;4.386;2022-11-28T00:58:08;5.85;;;3.55;;
39676;SDS011;27789;50.840;4.386;2022-11-28T01:00:33;5.95;;;3.17;;
39676;SDS011;27789;50.840;4.386;2022-11-28T01:02:59;5.53;;;4.25;;
39676;SDS011;27789;50.840;4.386;2022-11-28T01:05:25;4.30;;;3.63;;
39676;SDS011;27789;50.840;4.386;2022-11-28T01:07:50;4.97;;;3.58;;
39676;SDS011;27789;50.840;4.386;2022-11-28T01:10:16;4.60;;;3.60;;
39676;SDS011;27789;50.840;4.386;2022-11-28T01:12:42;6.05;;;4.00;;
39676;SDS011;27789;50.840;4.386;2022-11-28T01:15:09;6.63;;;4.18;;
39676;SDS011;27789;50.840;4.386;2022-11-28T01:17:36;6.72;;;3.92;;
39676;SDS011;27789;50.840;4.386;2022-11-28T01:20:02;7.88;;;4.95;;
39676;SDS011;27789;50.840;4.386;2022-11-28T01:22:30;6.35;;;4.32;;
39676;SDS011;27789;50.840;4.386;2022-11-28T01:24:55;6.97;;;3.92;;
39676;SDS011;27789;50.840;4.386;2022-11-28T01:27:21;5.18;;;4.22;;
39676;SDS011;27789;50.840;4.386;2022-11-28T01:29:46;6.10;;;3.78;;
39676;SDS011;27789;50.840;4.386;2022-11-28T01:32:13;6.60;;;4.20;;
39676;SDS011;27789;50.840;4.386;2022-11-28T01:34:39;4.88;;;4.35;;
39676;SDS011;27789;50.840;4.386;2022-11-28T01:37:04;6.63;;;4.20;;
39676;SDS011;27789;50.840;4.386;2022-11-28T01:39:30;8.88;;;4.80;;
39676;SDS011;27789;50.840;4.386;2022-11-28T01:41:56;7.63;;;4.38;;
39676;SDS011;27789;50.840;4.386;2022-11-28T01:46:47;8.80;;;4.63;;
39676;SDS011;27789;50.840;4.386;2022-11-28T01:49:32;6.13;;;4.53;;
39676;SDS011;27789;50.840;4.386;2022-11-28T01:52:04;6.85;;;4.28;;
39676;SDS011;27789;50.840;4.386;2022-11-28T01:54:33;8.30;;;4.13;;
39676;SDS011;27789;50.840;4.386;2022-11-28T01:57:02;6.60;;;4.28;;
39676;SDS011;27789;50.840;4.386;2022-11-28T01:59:33;9.32;;;4.28;;
39676;SDS011;27789;50.840;4.386;2022-11-28T02:02:01;8.70;;;4.30;;
39676;SDS011;27789;50.840;4.386;2022-11-28T02:04:31;5.72;;;4.75;;
39676;SDS011;27789;50.840;4.386;2022-11-28T02:06:58;7.13;;;4.95;;
39676;SDS011;27789;50.840;4.386;2022-11-28T02:09:23;7.90;;;4.57;;
39676;SDS011;27789;50.840;4.386;2022-11-28T02:12:33;5.72;;;4.80;;
39676;SDS011;27789;50.840;4.386;2022-11-28T02:22:57;7.47;;;4.75;;
39676;SDS011;27789;50.840;4.386;2022-11-28T02:34:01;6.32;;;4.47;;
39676;SDS011;27789;50.840;4.386;2022-11-28T02:36:33;6.88;;;5.13;;
39676;SDS011;27789;50.840;4.386;2022-11-28T02:41:47;6.32;;;4.93;;
39676;SDS011;27789;50.840;4.386;2022-11-28T02:44:29;7.07;;;5.07;;
39676;SDS011;27789;50.840;4.386;2022-11-28T02:47:04;5.60;;;4.35;;
39676;SDS011;27789;50.840;4.386;2022-11-28T02:49:35;5.78;;;4.53;;
39676;SDS011;27789;50.840;4.386;2022-11-28T02:52:04;5.57;;;4.47;;
39676;SDS011;27789;50.840;4.386;2022-11-28T02:54:37;5.07;;;4.35;;
39676;SDS011;27789;50.840;4.386;2022-11-28T02:57:05;4.82;;;4.20;;
39676;SDS011;27789;50.840;4.386;2022-11-28T03:02:04;5.43;;;4.65;;
39676;SDS011;27789;50.840;4.386;2022-11-28T03:07:11;5.68;;;4.57;;
39676;SDS011;27789;50.840;4.386;2022-11-28T03:15:25;5.03;;;4.47;;
39676;SDS011;27789;50.840;4.386;2022-11-28T03:20:43;6.75;;;4.30;;
39676;SDS011;27789;50.840;4.386;2022-11-28T03:23:23;5.63;;;4.50;;
39676;SDS011;27789;50.840;4.386;2022-11-28T03:31:21;5.32;;;4.60;;
39676;SDS011;27789;50.840;4.386;2022-11-28T03:33:58;5.65;;;4.28;;
39676;SDS011;27789;50.840;4.386;2022-11-28T03:36:25;4.47;;;4.03;;
39676;SDS011;27789;50.840;4.386;2022-11-28T03:38:57;5.43;;;4.60;;
39676;SDS011;27789;50.840;4.386;2022-11-28T03:41:27;7.03;;;4.40;;
39676;SDS011;27789;50.840;4.386;2022-11-28T03:44:02;5.72;;;4.15;;
39676;SDS011;27789;50.840;4.386;2022-11-28T03:46:34;5.00;;;4.43;;
39676;SDS011;27789;50.840;4.386;2022-11-28T03:49:02;4.70;;;4.15;;
39676;SDS011;27789;50.840;4.386;2022-11-28T03:51:32;5.13;;;4.38;;
39676;SDS011;27789;50.840;4.386;2022-11-28T03:54:27;4.68;;;4.20;;
39676;SDS011;27789;50.840;4.386;2022-11-28T03:59:48;4.32;;;3.90;;
39676;SDS011;27789;50.840;4.386;2022-11-28T04:05:02;4.07;;;3.70;;
39676;SDS011;27789;50.840;4.386;2022-11-28T04:07:44;5.22;;;4.65;;
39676;SDS011;27789;50.840;4.386;2022-11-28T04:10:30;4.88;;;4.00;;
39676;SDS011;27789;50.840;4.386;2022-11-28T04:13:06;4.80;;;3.83;;
39676;SDS011;27789;50.840;4.386;2022-11-28T04:18:30;5.75;;;4.40;;
39676;SDS011;27789;50.840;4.386;2022-11-28T04:21:11;4.75;;;4.28;;
39676;SDS011;27789;50.840;4.386;2022-11-28T04:28:48;5.03;;;4.63;;
39676;SDS011;27789;50.840;4.386;2022-11-28T04:31:16;7.32;;;5.55;;
39676;SDS011;27789;50.840;4.386;2022-11-28T04:33:44;6.43;;;5.70;;
39676;SDS011;27789;50.840;4.386;2022-11-28T04:36:15;6.47;;;5.88;;
39676;SDS011;27789;50.840;4.386;2022-11-28T04:38:43;7.88;;;6.15;;
39676;SDS011;27789;50.840;4.386;2022-11-28T04:41:19;8.70;;;6.55;;
39676;SDS011;27789;50.840;4.386;2022-11-28T04:44:02;7.45;;;6.30;;
39676;SDS011;27789;50.840;4.386;2022-11-28T04:46:40;8.02;;;7.07;;
39676;SDS011;27789;50.840;4.386;2022-11-28T04:49:08;7.80;;;6.65;;
39676;SDS011;27789;50.840;4.386;2022-11-28T04:57:19;7.70;;;6.88;;
39676;SDS011;27789;50.840;4.386;2022-11-28T04:59:50;8.57;;;7.68;;
39676;SDS011;27789;50.840;4.386;2022-11-28T05:02:17;9.38;;;8.48;;
39676;SDS011;27789;50.840;4.386;2022-11-28T05:04:45;8.13;;;7.32;;
39676;SDS011;27789;50.840;4.386;2022-11-28T05:07:11;8.23;;;7.22;;
39676;SDS011;27789;50.840;4.386;2022-11-28T05:09:37;8.90;;;7.28;;
39676;SDS011;27789;50.840;4.386;2022-11-28T05:12:03;10.77;;;7.47;;
39676;SDS011;27789;50.840;4.386;2022-11-28T05:14:30;11.75;;;8.43;;
39676;SDS011;27789;50.840;4.386;2022-11-28T05:16:55;12.10;;;8.02;;
39676;SDS011;27789;50.840;4.386;2022-11-28T05:19:21;10.63;;;8.25;;
39676;SDS011;27789;50.840;4.386;2022-11-28T05:21:47;11.40;;;8.50;;
39676;SDS011;27789;50.840;4.386;2022-11-28T05:24:12;8.98;;;7.97;;
39676;SDS011;27789;50.840;4.386;2022-11-28T05:26:38;10.02;;;7.95;;
39676;SDS011;27789;50.840;4.386;2022-11-28T05:29:04;15.18;;;8.93;;
39676;SDS011;27789;50.840;4.386;2022-11-28T05:31:30;10.45;;;8.73;;
39676;SDS011;27789;50.840;4.386;2022-11-28T05:33:56;10.55;;;9.10;;
39676;SDS011;27789;50.840;4.386;2022-11-28T05:36:22;11.50;;;9.05;;
39676;SDS011;27789;50.840;4.386;2022-11-28T05:38:47;11.30;;;9.20;;
39676;SDS011;27789;50.840;4.386;2022-11-28T05:41:17;10.77;;;9.23;;
39676;SDS011;27789;50.840;4.386;2022-11-28T05:43:47;11.68;;;9.60;;
39676;SDS011;27789;50.840;4.386;2022-11-28T05:46:13;11.48;;;10.10;;
39676;SDS011;27789;50.840;4.386;2022-11-28T05:48:39;10.90;;;9.38;;
39676;SDS011;27789;50.840;4.386;2022-11-28T05:51:04;11.55;;;10.35;;
39676;SDS011;27789;50.840;4.386;2022-11-28T05:53:30;10.85;;;9.60;;
39676;SDS011;27789;50.840;4.386;2022-11-28T05:55:56;12.88;;;10.95;;
39676;SDS011;27789;50.840;4.386;2022-11-28T05:58:23;13.85;;;10.50;;
39676;SDS011;27789;50.840;4.386;2022-11-28T06:00:48;11.88;;;10.07;;
39676;SDS011;27789;50.840;4.386;2022-11-28T06:03:14;12.38;;;9.95;;
39676;SDS011;27789;50.840;4.386;2022-11-28T06:05:40;11.38;;;9.73;;
39676;SDS011;27789;50.840;4.386;2022-11-28T06:08:07;12.73;;;10.73;;
39676;SDS011;27789;50.840;4.386;2022-11-28T06:10:34;12.80;;;10.60;;
39676;SDS011;27789;50.840;4.386;2022-11-28T06:13:00;12.27;;;10.50;;
39676;SDS011;27789;50.840;4.386;2022-11-28T06:15:27;12.88;;;10.77;;
39676;SDS011;27789;50.840;4.386;2022-11-28T06:17:54;12.73;;;11.13;;
39676;SDS011;27789;50.840;4.386;2022-11-28T06:20:19;13.45;;;11.27;;
39676;SDS011;27789;50.840;4.386;2022-11-28T06:22:45;15.23;;;11.50;;
39676;SDS011;27789;50.840;4.386;2022-11-28T06:25:11;13.95;;;11.27;;
39676;SDS011;27789;50.840;4.386;2022-11-28T06:27:37;16.92;;;11.80;;
39676;SDS011;27789;50.840;4.386;2022-11-28T06:30:04;13.70;;;11.85;;
39676;SDS011;27789;50.840;4.386;2022-11-28T06:32:30;15.50;;;11.93;;
39676;SDS011;27789;50.840;4.386;2022-11-28T06:34:56;13.82;;;11.07;;
39676;SDS011;27789;50.840;4.386;2022-11-28T06:37:21;11.93;;;10.02;;
39676;SDS011;27789;50.840;4.386;2022-11-28T06:39:47;16.20;;;12.95;;
39676;SDS011;27789;50.840;4.386;2022-11-28T06:42:15;15.43;;;12.38;;
39676;SDS011;27789;50.840;4.386;2022-11-28T06:44:41;12.00;;;10.65;;
39676;SDS011;27789;50.840;4.386;2022-11-28T06:47:06;13.82;;;11.23;;
39676;SDS011;27789;50.840;4.386;2022-11-28T06:49:32;14.05;;;10.50;;
39676;SDS011;27789;50.840;4.386;2022-11-28T06:51:58;11.73;;;10.48;;
39676;SDS011;27789;50.840;4.386;2022-11-28T06:54:23;12.68;;;10.40;;
39676;SDS011;27789;50.840;4.386;2022-11-28T06:56:49;10.50;;;9.35;;
39676;SDS011;27789;50.840;4.386;2022-11-28T06:59:14;12.05;;;10.13;;
39676;SDS011;27789;50.840;4.386;2022-11-28T07:01:40;9.43;;;8.48;;
39676;SDS011;27789;50.840;4.386;2022-11-28T07:04:05;12.05;;;9.55;;
39676;SDS011;27789;50.840;4.386;2022-11-28T07:06:32;8.45;;;7.55;;
39676;SDS011;27789;50.840;4.386;2022-11-28T07:08:58;8.85;;;7.95;;
39676;SDS011;27789;50.840;4.386;2022-11-28T07:11:25;10.88;;;8.73;;
39676;SDS011;27789;50.840;4.386;2022-11-28T07:13:53;11.80;;;7.53;;
39676;SDS011;27789;50.840;4.386;2022-11-28T07:16:20;13.98;;;8.00;;
39676;SDS011;27789;50.840;4.386;2022-11-28T07:18:47;9.60;;;7.80;;
39676;SDS011;27789;50.840;4.386;2022-11-28T07:21:13;8.27;;;7.47;;
39676;SDS011;27789;50.840;4.386;2022-11-28T07:23:39;8.60;;;7.80;;
39676;SDS011;27789;50.840;4.386;2022-11-28T07:26:06;11.27;;;8.10;;
39676;SDS011;27789;50.840;4.386;2022-11-28T07:28:32;10.52;;;8.48;;
39676;SDS011;27789;50.840;4.386;2022-11-28T07:31:03;9.80;;;8.30;;
39676;SDS011;27789;50.840;4.386;2022-11-28T07:33:31;10.68;;;8.15;;
39676;SDS011;27789;50.840;4.386;2022-11-28T07:36:01;15.50;;;9.90;;
39676;SDS011;27789;50.840;4.386;2022-11-28T07:38:48;13.98;;;10.38;;
39676;SDS011;27789;50.840;4.386;2022-11-28T07:41:15;12.13;;;10.30;;
39676;SDS011;27789;50.840;4.386;2022-11-28T07:43:41;13.13;;;10.05;;
39676;SDS011;27789;50.840;4.386;2022-11-28T07:46:09;15.85;;;11.98;;
39676;SDS011;27789;50.840;4.386;2022-11-28T07:48:38;16.95;;;13.00;;
39676;SDS011;27789;50.840;4.386;2022-11-28T07:51:07;17.95;;;12.27;;
39676;SDS011;27789;50.840;4.386;2022-11-28T07:53:38;19.30;;;12.27;;
39676;SDS011;27789;50.840;4.386;2022-11-28T07:56:04;21.67;;;13.60;;
39676;SDS011;27789;50.840;4.386;2022-11-28T07:58:33;15.55;;;12.05;;
39676;SDS011;27789;50.840;4.386;2022-11-28T08:00:59;16.40;;;12.32;;
39676;SDS011;27789;50.840;4.386;2022-11-28T08:03:31;19.58;;;13.23;;
39676;SDS011;27789;50.840;4.386;2022-11-28T08:05:58;17.15;;;12.60;;
39676;SDS011;27789;50.840;4.386;2022-11-28T08:08:25;18.52;;;13.73;;
39676;SDS011;27789;50.840;4.386;2022-11-28T08:10:50;16.55;;;12.45;;
39676;SDS011;27789;50.840;4.386;2022-11-28T08:13:21;25.00;;;13.25;;
39676;SDS011;27789;50.840;4.386;2022-11-28T08:15:47;17.10;;;12.40;;
39676;SDS011;27789;50.840;4.386;2022-11-28T08:18:15;18.98;;;13.52;;
39676;SDS011;27789;50.840;4.386;2022-11-28T08:20:41;18.35;;;13.60;;
39676;SDS011;27789;50.840;4.386;2022-11-28T08:23:07;16.40;;;12.60;;
39676;SDS011;27789;50.840;4.386;2022-11-28T08:25:33;16.52;;;12.43;;
39676;SDS011;27789;50.840;4.386;2022-11-28T08:27:58;16.23;;;12.13;;
39676;SDS011;27789;50.840;4.386;2022-11-28T08:30:24;16.95;;;12.63;;
39676;SDS011;27789;50.840;4.386;2022-11-28T08:32:49;14.27;;;12.02;;
39676;SDS011;27789;50.840;4.386;2022-11-28T08:35:15;17.65;;;12.07;;
39676;SDS011;27789;50.840;4.386;2022-11-28T08:37:41;19.70;;;12.13;;
39676;SDS011;27789;50.840;4.386;2022-11-28T08:40:08;23.08;;;13.13;;
39676;SDS011;27789;50.840;4.386;2022-11-28T08:42:33;15.25;;;11.93;;
39676;SDS011;27789;50.840;4.386;2022-11-28T08:44:59;16.95;;;12.90;;
39676;SDS011;27789;50.840;4.386;2022-11-28T08:47:25;18.30;;;12.55;;
39676;SDS011;27789;50.840;4.386;2022-11-28T08:49:50;21.27;;;13.38;;
39676;SDS011;27789;50.840;4.386;2022-11-28T08:52:16;21.58;;;13.13;;
39676;SDS011;27789;50.840;4.386;2022-11-28T08:54:42;22.70;;;13.48;;
39676;SDS011;27789;50.840;4.386;2022-11-28T08:57:07;22.10;;;14.30;;
39676;SDS011;27789;50.840;4.386;2022-11-28T08:59:34;21.55;;;13.85;;
39676;SDS011;27789;50.840;4.386;2022-11-28T09:02:00;26.38;;;14.10;;
39676;SDS011;27789;50.840;4.386;2022-11-28T09:04:25;23.98;;;14.95;;
39676;SDS011;27789;50.840;4.386;2022-11-28T09:06:51;18.15;;;13.40;;
39676;SDS011;27789;50.840;4.386;2022-11-28T09:09:17;22.58;;;13.23;;
39676;SDS011;27789;50.840;4.386;2022-11-28T09:11:43;26.92;;;14.30;;
39676;SDS011;27789;50.840;4.386;2022-11-28T09:14:09;21.27;;;13.38;;
39676;SDS011;27789;50.840;4.386;2022-11-28T09:16:35;17.67;;;12.75;;
39676;SDS011;27789;50.840;4.386;2022-11-28T09:19:02;19.88;;;13.43;;
39676;SDS011;27789;50.840;4.386;2022-11-28T09:21:28;21.42;;;13.80;;
39676;SDS011;27789;50.840;4.386;2022-11-28T09:23:54;19.98;;;13.13;;
39676;SDS011;27789;50.840;4.386;2022-11-28T09:26:20;23.58;;;13.15;;
39676;SDS011;27789;50.840;4.386;2022-11-28T09:28:48;21.80;;;13.10;;
39676;SDS011;27789;50.840;4.386;2022-11-28T09:31:14;22.17;;;13.68;;
39676;SDS011;27789;50.840;4.386;2022-11-28T09:33:41;25.60;;;13.07;;
39676;SDS011;27789;50.840;4.386;2022-11-28T09:36:08;22.67;;;14.20;;
39676;SDS011;27789;50.840;4.386;2022-11-28T09:38:35;22.67;;;13.48;;
39676;SDS011;27789;50.840;4.386;2022-11-28T09:41:02;23.00;;;13.65;;
39676;SDS011;27789;50.840;4.386;2022-11-28T09:43:42;60.22;;;16.77;;
39676;SDS011;27789;50.840;4.386;2022-11-28T09:46:12;35.75;;;15.00;;
39676;SDS011;27789;50.840;4.386;2022-11-28T09:48:45;25.05;;;12.93;;
39676;SDS011;27789;50.840;4.386;2022-11-28T09:51:26;17.95;;;10.52;;
39676;SDS011;27789;50.840;4.386;2022-11-28T09:56:37;23.05;;;11.40;;
39676;SDS011;27789;50.840;4.386;2022-11-28T09:59:03;22.13;;;11.80;;
39676;SDS011;27789;50.840;4.386;2022-11-28T10:01:42;16.27;;;12.25;;
39676;SDS011;27789;50.840;4.386;2022-11-28T10:04:15;21.10;;;11.98;;
39676;SDS011;27789;50.840;4.386;2022-11-28T10:10:10;32.28;;;13.10;;
39676;SDS011;27789;50.840;4.386;2022-11-28T10:20:27;23.23;;;11.70;;
39676;SDS011;27789;50.840;4.386;2022-11-28T10:25:40;26.13;;;13.25;;
39676;SDS011;27789;50.840;4.386;2022-11-28T10:28:21;24.38;;;11.68;;
39676;SDS011;27789;50.840;4.386;2022-11-28T10:31:00;24.13;;;11.65;;
39676;SDS011;27789;50.840;4.386;2022-11-28T10:33:42;22.42;;;12.02;;
39676;SDS011;27789;50.840;4.386;2022-11-28T10:36:21;24.25;;;11.73;;
39676;SDS011;27789;50.840;4.386;2022-11-28T10:38:52;21.77;;;11.88;;
39676;SDS011;27789;50.840;4.386;2022-11-28T10:49:30;19.92;;;11.82;;
39676;SDS011;27789;50.840;4.386;2022-11-28T10:52:16;19.70;;;11.27;;
39676;SDS011;27789;50.840;4.386;2022-11-28T10:57:36;25.38;;;12.07;;
39676;SDS011;27789;50.840;4.386;2022-11-28T11:00:15;24.20;;;12.88;;
39676;SDS011;27789;50.840;4.386;2022-11-28T11:08:02;19.48;;;12.13;;
39676;SDS011;27789;50.840;4.386;2022-11-28T11:10:39;32.15;;;13.20;;
39676;SDS011;27789;50.840;4.386;2022-11-28T11:13:14;24.92;;;13.63;;
39676;SDS011;27789;50.840;4.386;2022-11-28T11:15:45;28.00;;;13.85;;
39676;SDS011;27789;50.840;4.386;2022-11-28T11:18:21;32.70;;;13.88;;
39676;SDS011;27789;50.840;4.386;2022-11-28T11:20:47;27.77;;;14.55;;
39676;SDS011;27789;50.840;4.386;2022-11-28T11:31:04;30.85;;;13.80;;
39676;SDS011;27789;50.840;4.386;2022-11-28T11:33:39;26.77;;;12.35;;
39676;SDS011;27789;50.840;4.386;2022-11-28T11:36:17;26.85;;;13.80;;
39676;SDS011;27789;50.840;4.386;2022-11-28T11:38:46;26.77;;;13.90;;
39676;SDS011;27789;50.840;4.386;2022-11-28T11:41:19;26.25;;;13.40;;
39676;SDS011;27789;50.840;4.386;2022-11-28T11:43:52;30.45;;;14.27;;
39676;SDS011;27789;50.840;4.386;2022-11-28T11:46:18;25.05;;;13.73;;
39676;SDS011;27789;50.840;4.386;2022-11-28T11:48:48;30.80;;;14.77;;
39676;SDS011;27789;50.840;4.386;2022-11-28T11:56:33;27.30;;;15.35;;
39676;SDS011;27789;50.840;4.386;2022-11-28T11:59:02;30.33;;;13.52;;
39676;SDS011;27789;50.840;4.386;2022-11-28T12:01:34;32.80;;;14.52;;
39676;SDS011;27789;50.840;4.386;2022-11-28T12:04:04;27.63;;;14.65;;
39676;SDS011;27789;50.840;4.386;2022-11-28T12:06:39;35.40;;;16.35;;
39676;SDS011;27789;50.840;4.386;2022-11-28T12:11:40;36.33;;;14.77;;
39676;SDS011;27789;50.840;4.386;2022-11-28T12:28:04;33.25;;;14.82;;
39676;SDS011;27789;50.840;4.386;2022-11-28T12:33:40;32.97;;;14.80;;
39676;SDS011;27789;50.840;4.386;2022-11-28T12:39:10;33.65;;;13.80;;
39676;SDS011;27789;50.840;4.386;2022-11-28T13:00:56;31.33;;;13.05;;
39676;SDS011;27789;50.840;4.386;2022-11-28T13:22:51;27.27;;;15.05;;
39676;SDS011;27789;50.840;4.386;2022-11-28T13:28:09;32.28;;;14.10;;
39676;SDS011;27789;50.840;4.386;2022-11-28T13:33:24;33.63;;;13.85;;
39676;SDS011;27789;50.840;4.386;2022-11-28T13:36:03;32.38;;;14.15;;
39676;SDS011;27789;50.840;4.386;2022-11-28T13:38:43;30.15;;;13.50;;
39676;SDS011;27789;50.840;4.386;2022-11-28T13:41:12;31.92;;;13.20;;
39676;SDS011;27789;50.840;4.386;2022-11-28T13:43:49;25.83;;;13.27;;
39676;SDS011;27789;50.840;4.386;2022-11-28T13:46:20;26.10;;;13.20;;
39676;SDS011;27789;50.840;4.386;2022-11-28T13:53:44;29.13;;;12.65;;
39676;SDS011;27789;50.840;4.386;2022-11-28T13:56:20;27.75;;;14.13;;
39676;SDS011;27789;50.840;4.386;2022-11-28T13:58:58;29.92;;;13.50;;
39676;SDS011;27789;50.840;4.386;2022-11-28T14:01:26;39.95;;;14.13;;
39676;SDS011;27789;50.840;4.386;2022-11-28T14:06:27;26.73;;;12.98;;
39676;SDS011;27789;50.840;4.386;2022-11-28T14:17:07;39.58;;;14.07;;
39676;SDS011;27789;50.840;4.386;2022-11-28T14:27:56;41.50;;;16.70;;
39676;SDS011;27789;50.840;4.386;2022-11-28T14:30:28;43.13;;;17.73;;
39676;SDS011;27789;50.840;4.386;2022-11-28T14:32:56;34.05;;;14.00;;
39676;SDS011;27789;50.840;4.386;2022-11-28T14:41:10;44.83;;;16.00;;
39676;SDS011;27789;50.840;4.386;2022-11-28T14:43:45;41.55;;;15.90;;
39676;SDS011;27789;50.840;4.386;2022-11-28T14:56:54;36.63;;;15.40;;
39676;SDS011;27789;50.840;4.386;2022-11-28T14:59:23;39.05;;;15.85;;
39676;SDS011;27789;50.840;4.386;2022-11-28T15:01:59;42.80;;;14.38;;
39676;SDS011;27789;50.840;4.386;2022-11-28T15:12:53;43.30;;;15.32;;
39676;SDS011;27789;50.840;4.386;2022-11-28T15:15:15;44.45;;;16.02;;
39676;SDS011;27789;50.840;4.386;2022-11-28T15:17:44;46.95;;;15.32;;
39676;SDS011;27789;50.840;4.386;2022-11-28T15:20:16;39.42;;;14.00;;
39676;SDS011;27789;50.840;4.386;2022-11-28T15:22:52;42.65;;;15.00;;
39676;SDS011;27789;50.840;4.386;2022-11-28T15:25:19;28.40;;;13.90;;
39676;SDS011;27789;50.840;4.386;2022-11-28T15:27:47;43.17;;;15.52;;
39676;SDS011;27789;50.840;4.386;2022-11-28T15:30:14;43.17;;;14.88;;
39676;SDS011;27789;50.840;4.386;2022-11-28T15:32:42;30.67;;;13.50;;
39676;SDS011;27789;50.840;4.386;2022-11-28T15:35:17;34.33;;;13.27;;
39676;SDS011;27789;50.840;4.386;2022-11-28T15:38:00;43.67;;;15.05;;
39676;SDS011;27789;50.840;4.386;2022-11-28T15:40:33;37.58;;;15.27;;
39676;SDS011;27789;50.840;4.386;2022-11-28T15:43:00;37.50;;;14.02;;
39676;SDS011;27789;50.840;4.386;2022-11-28T15:45:31;37.08;;;14.65;;
39676;SDS011;27789;50.840;4.386;2022-11-28T15:47:59;45.45;;;14.30;;
39676;SDS011;27789;50.840;4.386;2022-11-28T15:50:28;37.17;;;14.00;;
39676;SDS011;27789;50.840;4.386;2022-11-28T15:52:56;45.10;;;15.07;;
39676;SDS011;27789;50.840;4.386;2022-11-28T15:55:33;49.35;;;15.23;;
39676;SDS011;27789;50.840;4.386;2022-11-28T16:00:50;40.95;;;13.63;;
39676;SDS011;27789;50.840;4.386;2022-11-28T16:03:21;37.50;;;13.77;;
39676;SDS011;27789;50.840;4.386;2022-11-28T16:05:50;44.30;;;13.68;;
39676;SDS011;27789;50.840;4.386;2022-11-28T16:08:37;37.85;;;13.50;;
39676;SDS011;27789;50.840;4.386;2022-11-28T16:11:06;39.55;;;13.40;;
39676;SDS011;27789;50.840;4.386;2022-11-28T16:13:34;37.70;;;13.90;;
39676;SDS011;27789;50.840;4.386;2022-11-28T16:16:06;38.58;;;15.25;;
39676;SDS011;27789;50.840;4.386;2022-11-28T16:18:41;39.38;;;14.75;;
39676;SDS011;27789;50.840;4.386;2022-11-28T16:21:12;40.92;;;14.10;;
39676;SDS011;27789;50.840;4.386;2022-11-28T16:23:38;46.92;;;14.70;;
39676;SDS011;27789;50.840;4.386;2022-11-28T16:28:54;41.08;;;15.27;;
39676;SDS011;27789;50.840;4.386;2022-11-28T16:31:33;43.00;;;14.50;;
39676;SDS011;27789;50.840;4.386;2022-11-28T16:33:59;41.15;;;14.63;;
39676;SDS011;27789;50.840;4.386;2022-11-28T16:41:34;46.05;;;14.88;;
39676;SDS011;27789;50.840;4.386;2022-11-28T16:44:05;41.88;;;14.50;;
39676;SDS011;27789;50.840;4.386;2022-11-28T16:46:39;45.00;;;16.00;;
39676;SDS011;27789;50.840;4.386;2022-11-28T16:54:45;32.63;;;13.75;;
39676;SDS011;27789;50.840;4.386;2022-11-28T16:57:11;45.67;;;14.70;;
39676;SDS011;27789;50.840;4.386;2022-11-28T16:59:41;43.70;;;15.70;;
39676;SDS011;27789;50.840;4.386;2022-11-28T17:02:15;42.08;;;15.68;;
39676;SDS011;27789;50.840;4.386;2022-11-28T17:04:43;43.40;;;14.57;;
39676;SDS011;27789;50.840;4.386;2022-11-28T17:07:10;41.78;;;14.93;;
39676;SDS011;27789;50.840;4.386;2022-11-28T17:09:39;39.60;;;14.32;;
39676;SDS011;27789;50.840;4.386;2022-11-28T17:14:48;49.10;;;15.85;;
39676;SDS011;27789;50.840;4.386;2022-11-28T17:17:14;45.95;;;15.23;;
39676;SDS011;27789;50.840;4.386;2022-11-28T17:19:42;44.55;;;15.10;;
39676;SDS011;27789;50.840;4.386;2022-11-28T17:22:12;43.83;;;15.90;;
39676;SDS011;27789;50.840;4.386;2022-11-28T17:24:47;52.00;;;16.00;;
39676;SDS011;27789;50.840;4.386;2022-11-28T17:27:13;50.25;;;16.13;;
39676;SDS011;27789;50.840;4.386;2022-11-28T17:29:40;56.72;;;17.05;;
39676;SDS011;27789;50.840;4.386;2022-11-28T17:32:06;43.13;;;14.88;;
39676;SDS011;27789;50.840;4.386;2022-11-28T17:34:36;46.42;;;14.48;;
39676;SDS011;27789;50.840;4.386;2022-11-28T17:37:02;43.38;;;14.93;;
39676;SDS011;27789;50.840;4.386;2022-11-28T17:39:29;45.38;;;15.95;;
39676;SDS011;27789;50.840;4.386;2022-11-28T17:41:55;43.50;;;14.77;;
39676;SDS011;27789;50.840;4.386;2022-11-28T17:44:22;50.38;;;13.88;;
39676;SDS011;27789;50.840;4.386;2022-11-28T17:46:53;37.08;;;14.10;;
39676;SDS011;27789;50.840;4.386;2022-11-28T17:49:20;34.58;;;12.95;;
39676;SDS011;27789;50.840;4.386;2022-11-28T17:51:46;44.92;;;14.30;;
39676;SDS011;27789;50.840;4.386;2022-11-28T17:54:13;44.30;;;14.10;;
39676;SDS011;27789;50.840;4.386;2022-11-28T17:56:43;41.55;;;13.85;;
39676;SDS011;27789;50.840;4.386;2022-11-28T17:59:10;38.13;;;13.30;;
39676;SDS011;27789;50.840;4.386;2022-11-28T18:01:36;40.45;;;13.82;;
39676;SDS011;27789;50.840;4.386;2022-11-28T18:04:02;39.08;;;14.35;;
39676;SDS011;27789;50.840;4.386;2022-11-28T18:06:28;48.55;;;15.13;;
39676;SDS011;27789;50.840;4.386;2022-11-28T18:08:56;39.38;;;14.70;;
39676;SDS011;27789;50.840;4.386;2022-11-28T18:11:24;49.28;;;15.60;;
39676;SDS011;27789;50.840;4.386;2022-11-28T18:13:51;36.03;;;13.07;;
39676;SDS011;27789;50.840;4.386;2022-11-28T18:16:18;38.70;;;14.40;;
39676;SDS011;27789;50.840;4.386;2022-11-28T18:18:46;37.22;;;13.38;;
39676;SDS011;27789;50.840;4.386;2022-11-28T18:21:12;40.97;;;16.65;;
39676;SDS011;27789;50.840;4.386;2022-11-28T18:23:39;38.35;;;14.43;;
39676;SDS011;27789;50.840;4.386;2022-11-28T18:26:06;41.15;;;13.50;;
39676;SDS011;27789;50.840;4.386;2022-11-28T18:28:33;55.75;;;16.83;;
39676;SDS011;27789;50.840;4.386;2022-11-28T18:30:59;51.53;;;15.93;;
39676;SDS011;27789;50.840;4.386;2022-11-28T18:33:25;37.25;;;15.73;;
39676;SDS011;27789;50.840;4.386;2022-11-28T18:35:50;48.05;;;15.13;;
39676;SDS011;27789;50.840;4.386;2022-11-28T18:38:16;52.38;;;17.02;;
39676;SDS011;27789;50.840;4.386;2022-11-28T18:40:41;50.97;;;14.93;;
39676;SDS011;27789;50.840;4.386;2022-11-28T18:43:07;40.88;;;15.13;;